Time;durP1;ratioP1;P1;durP2;ratioP2;P2;SDS_P1;SDS_P2;PMS_P1;PMS_P2;Temp;Humidity;BMP_temperature;BMP_pressure;BME280_temperature;BME280_humidity;BME280_pressure;Samples;Min_cycle;Max_cycle;Signal;HPM_P1;HPM_P2
2022/03/05 00:01:58;;;;;;;14.38;7.55;;;-1.50;96.30;;;;;;5056342;28;20095;-66
2022/03/05 00:04:23;;;;;;;16.70;8.32;;;-1.60;96.20;;;;;;5031667;28;20333;-67
2022/03/05 00:06:49;;;;;;;18.33;8.20;;;-1.60;96.50;;;;;;5044192;28;20035;-66
2022/03/05 00:09:17;;;;;;;15.75;6.90;;;-1.60;96.70;;;;;;5060125;28;20045;-66
2022/03/05 00:11:43;;;;;;;16.75;7.32;;;-1.60;96.60;;;;;;5055618;28;20044;-67
2022/03/05 00:14:09;;;;;;;20.38;8.23;;;-1.60;96.90;;;;;;5058933;28;20154;-67
2022/03/05 00:16:35;;;;;;;17.20;7.80;;;-1.60;97.10;;;;;;5056126;28;20502;-67
2022/03/05 00:19:01;;;;;;;21.30;7.97;;;-1.60;97.00;;;;;;5064619;28;20404;-67
2022/03/05 00:21:26;;;;;;;20.00;8.55;;;-1.60;97.10;;;;;;5048785;28;20029;-67
2022/03/05 00:23:52;;;;;;;19.40;7.85;;;-1.70;97.00;;;;;;5047421;28;20033;-67
2022/03/05 00:26:17;;;;;;;17.83;8.73;;;-1.70;97.10;;;;;;5048166;28;20033;-66
2022/03/05 00:28:43;;;;;;;17.30;7.15;;;-1.70;97.40;;;;;;5048814;28;20033;-66
2022/03/05 00:31:09;;;;;;;13.25;6.18;;;-1.70;97.60;;;;;;5052469;28;20072;-67
2022/03/05 00:33:34;;;;;;;11.32;5.80;;;-1.70;98.30;;;;;;5063609;28;20101;-67
2022/03/05 00:36:00;;;;;;;14.68;6.00;;;-1.70;97.80;;;;;;5054321;28;20033;-67
2022/03/05 00:38:26;;;;;;;16.00;6.25;;;-1.70;97.70;;;;;;5051161;28;20099;-67
2022/03/05 00:40:51;;;;;;;12.88;5.93;;;-1.70;97.10;;;;;;5061804;28;20392;-66
2022/03/05 00:43:17;;;;;;;12.32;5.53;;;-1.80;96.90;;;;;;5058924;28;20033;-67
2022/03/05 00:45:43;;;;;;;12.82;5.95;;;-1.90;96.60;;;;;;5054068;28;20092;-66
2022/03/05 00:48:08;;;;;;;13.90;6.30;;;-1.90;96.80;;;;;;5055391;28;20033;-66
2022/03/05 00:50:34;;;;;;;14.73;6.20;;;-1.90;96.90;;;;;;5035549;28;20613;-67
2022/03/05 00:53:00;;;;;;;12.57;5.75;;;-1.90;97.00;;;;;;5048405;28;20083;-67
2022/03/05 00:55:25;;;;;;;13.35;6.15;;;-1.90;97.60;;;;;;5046252;28;20035;-67
2022/03/05 00:57:51;;;;;;;12.70;5.75;;;-1.90;97.50;;;;;;5040997;28;20036;-67
2022/03/05 01:00:17;;;;;;;14.98;6.30;;;-1.80;97.90;;;;;;5049103;28;20095;-66
2022/03/05 01:02:43;;;;;;;13.75;5.88;;;-1.90;97.50;;;;;;5048672;28;20043;-66
2022/03/05 01:05:10;;;;;;;11.32;6.38;;;-1.90;97.20;;;;;;5056242;28;20040;-66
2022/03/05 01:07:36;;;;;;;13.27;5.95;;;-1.90;97.30;;;;;;5051370;28;20033;-68
2022/03/05 01:10:02;;;;;;;11.10;5.97;;;-1.90;97.30;;;;;;5062523;28;20036;-66
2022/03/05 01:12:28;;;;;;;13.70;5.30;;;-1.90;97.60;;;;;;5041555;28;20475;-66
2022/03/05 01:14:53;;;;;;;13.30;5.72;;;-2.00;97.40;;;;;;5032783;28;20057;-66
2022/03/05 01:17:19;;;;;;;12.10;5.95;;;-2.00;97.30;;;;;;5036717;28;20060;-66
2022/03/05 01:19:46;;;;;;;11.93;6.03;;;-2.00;97.40;;;;;;5052734;28;20041;-66
2022/03/05 01:22:11;;;;;;;11.18;5.40;;;-2.00;97.90;;;;;;5055314;28;20442;-68
2022/03/05 01:24:37;;;;;;;13.23;5.90;;;-2.00;98.00;;;;;;5063041;28;20047;-66
2022/03/05 01:27:03;;;;;;;15.95;6.53;;;-2.00;98.30;;;;;;5040426;28;20045;-66
2022/03/05 01:29:28;;;;;;;12.93;5.50;;;-2.00;98.30;;;;;;5067769;28;20143;-66
2022/03/05 01:31:54;;;;;;;13.43;5.88;;;-2.00;98.30;;;;;;5059784;28;20105;-66
2022/03/05 01:34:20;;;;;;;11.77;5.70;;;-2.00;98.20;;;;;;5067027;28;20103;-67
2022/03/05 01:36:45;;;;;;;11.93;5.35;;;-2.00;97.90;;;;;;5064278;28;20361;-66
2022/03/05 01:39:12;;;;;;;11.45;5.25;;;-2.10;97.40;;;;;;5060211;28;20114;-67
2022/03/05 01:41:37;;;;;;;14.88;6.05;;;-2.20;97.10;;;;;;5054500;28;20044;-66
2022/03/05 01:44:04;;;;;;;13.05;6.32;;;-2.20;97.20;;;;;;5035807;28;20041;-66
2022/03/05 01:46:39;;;;;;;10.15;5.93;;;-2.20;97.50;;;;;;5057564;28;20048;-66
2022/03/05 01:49:08;;;;;;;12.95;6.47;;;-2.40;97.40;;;;;;5045178;28;20369;-66
2022/03/05 01:51:34;;;;;;;15.02;6.43;;;-2.40;97.40;;;;;;5051520;28;20048;-67
2022/03/05 01:54:01;;;;;;;15.27;6.22;;;-2.50;97.90;;;;;;5051371;28;20392;-66
2022/03/05 01:56:28;;;;;;;12.95;5.82;;;-2.40;98.40;;;;;;5061715;28;20032;-66
2022/03/05 01:58:54;;;;;;;12.52;6.32;;;-2.40;98.70;;;;;;5060860;28;20506;-66
2022/03/05 02:01:24;;;;;;;14.00;6.15;;;-2.40;99.00;;;;;;5058447;28;20040;-66
2022/03/05 02:03:51;;;;;;;12.15;6.07;;;-2.40;99.30;;;;;;5050720;28;20047;-66
2022/03/05 02:06:17;;;;;;;12.40;6.38;;;-2.40;98.90;;;;;;5064276;28;20068;-66
2022/03/05 02:08:43;;;;;;;12.45;6.45;;;-2.40;98.70;;;;;;5057192;28;20060;-66
2022/03/05 02:11:08;;;;;;;17.67;6.93;;;-2.40;99.00;;;;;;5038065;28;20037;-66
2022/03/05 02:13:34;;;;;;;13.75;6.38;;;-2.40;99.40;;;;;;5050961;28;20043;-66
2022/03/05 02:15:59;;;;;;;17.40;6.80;;;-2.40;99.60;;;;;;5063884;28;20097;-66
2022/03/05 02:18:25;;;;;;;17.20;7.05;;;-2.40;99.60;;;;;;5046418;28;20059;-66
2022/03/05 02:20:52;;;;;;;15.73;6.50;;;-2.40;99.40;;;;;;5060352;28;20040;-66
2022/03/05 02:23:17;;;;;;;16.70;7.03;;;-2.50;99.30;;;;;;5059531;28;20392;-66
2022/03/05 02:25:59;;;;;;;14.95;6.65;;;-2.50;99.50;;;;;;5052226;28;20037;-66
2022/03/05 02:28:26;;;;;;;12.88;6.40;;;-2.50;99.70;;;;;;5066366;28;20032;-66
2022/03/05 02:30:52;;;;;;;12.80;6.60;;;-2.50;99.40;;;;;;5035572;28;20033;-66
2022/03/05 02:33:19;;;;;;;14.02;6.00;;;-2.50;99.40;;;;;;5056029;28;20076;-67
2022/03/05 02:35:45;;;;;;;15.38;6.32;;;-2.50;99.70;;;;;;5055365;28;20074;-66
2022/03/05 02:38:12;;;;;;;18.17;6.78;;;-2.50;99.60;;;;;;5053624;28;20041;-66
2022/03/05 02:40:39;;;;;;;15.38;6.93;;;-2.60;99.40;;;;;;5060956;28;20072;-66
2022/03/05 02:43:06;;;;;;;15.73;7.20;;;-2.60;99.30;;;;;;5051466;28;20035;-66
2022/03/05 02:45:31;;;;;;;15.80;6.93;;;-2.60;99.30;;;;;;5051460;28;20070;-66
2022/03/05 02:47:58;;;;;;;13.23;6.22;;;-2.70;99.10;;;;;;5058762;28;20033;-66
2022/03/05 02:50:24;;;;;;;13.68;6.80;;;-2.70;99.20;;;;;;5054608;28;20067;-66
2022/03/05 02:52:49;;;;;;;13.32;6.50;;;-2.70;99.30;;;;;;5048389;28;20083;-66
2022/03/05 02:55:15;;;;;;;11.68;5.75;;;-2.80;99.30;;;;;;5062829;28;20040;-67
2022/03/05 02:57:40;;;;;;;16.00;6.47;;;-2.70;99.80;;;;;;5048741;28;20037;-66
2022/03/05 03:00:06;;;;;;;12.52;6.38;;;-2.80;99.60;;;;;;5051966;28;20056;-66
2022/03/05 03:02:32;;;;;;;10.13;5.70;;;-2.80;99.80;;;;;;5065631;28;20033;-66
2022/03/05 03:04:57;;;;;;;14.18;5.88;;;-2.80;99.70;;;;;;5058503;28;20473;-66
2022/03/05 03:07:23;;;;;;;14.02;6.30;;;-2.80;99.40;;;;;;5048964;28;20511;-66
2022/03/05 03:09:49;;;;;;;16.27;6.40;;;-2.80;99.60;;;;;;5052204;28;20571;-66
2022/03/05 03:12:14;;;;;;;13.90;7.32;;;-2.80;99.60;;;;;;5068076;28;20045;-66
2022/03/05 03:14:40;;;;;;;14.93;6.75;;;-2.80;99.90;;;;;;5055291;28;20061;-66
2022/03/05 03:17:05;;;;;;;11.18;5.20;;;-2.80;99.60;;;;;;5060415;28;20102;-66
2022/03/05 03:19:31;;;;;;;15.75;6.82;;;-2.80;99.60;;;;;;5052703;28;20068;-66
2022/03/05 03:21:56;;;;;;;12.13;6.38;;;-2.80;99.70;;;;;;5049032;28;20045;-66
2022/03/05 03:24:22;;;;;;;15.32;7.07;;;-2.80;99.90;;;;;;5043133;28;20037;-66
2022/03/05 03:26:48;;;;;;;15.82;6.35;;;-2.80;99.90;;;;;;5053961;28;20063;-66
2022/03/05 03:29:13;;;;;;;13.77;6.38;;;-2.80;99.90;;;;;;5052667;28;20091;-66
2022/03/05 03:31:39;;;;;;;11.05;5.97;;;-2.80;99.90;;;;;;5054966;28;20040;-66
2022/03/05 03:34:04;;;;;;;17.98;6.60;;;-2.80;99.90;;;;;;5037858;28;20044;-66
2022/03/05 03:36:30;;;;;;;15.43;6.75;;;-2.70;99.90;;;;;;5047544;28;20506;-67
2022/03/05 03:38:56;;;;;;;15.90;6.35;;;-2.70;99.90;;;;;;5037701;28;20048;-66
2022/03/05 03:41:21;;;;;;;13.20;6.15;;;-2.70;99.90;;;;;;5059853;28;20048;-66
2022/03/05 03:43:47;;;;;;;15.20;6.45;;;-2.70;99.90;;;;;;5049227;28;20389;-66
2022/03/05 03:46:13;;;;;;;14.70;5.75;;;-2.70;99.90;;;;;;5031198;28;20101;-66
2022/03/05 03:48:38;;;;;;;12.30;6.07;;;-2.70;99.90;;;;;;5037299;28;20066;-66
2022/03/05 03:51:04;;;;;;;12.85;6.10;;;-2.70;99.90;;;;;;5040633;28;20095;-66
2022/03/05 03:53:29;;;;;;;12.32;5.82;;;-2.70;99.90;;;;;;5033536;28;20068;-66
2022/03/05 03:55:55;;;;;;;13.10;5.88;;;-2.70;99.90;;;;;;5062092;28;20036;-66
2022/03/05 03:58:21;;;;;;;12.32;6.13;;;-2.80;99.90;;;;;;5053184;28;20144;-66
2022/03/05 04:00:46;;;;;;;13.05;5.45;;;-2.80;99.90;;;;;;5045723;28;20048;-66
2022/03/05 04:03:12;;;;;;;15.38;5.65;;;-2.80;99.90;;;;;;5038168;28;20041;-66
2022/03/05 04:05:37;;;;;;;13.57;5.65;;;-2.90;99.90;;;;;;5051438;28;20039;-66
2022/03/05 04:10:47;;;;;;;15.85;5.82;;;-2.90;99.90;;;;;;5063478;28;20048;-66
2022/03/05 04:13:12;;;;;;;13.90;6.68;;;-2.90;99.90;;;;;;5039323;28;20099;-66
2022/03/05 04:15:39;;;;;;;17.08;6.45;;;-2.90;99.90;;;;;;5053374;28;20048;-67
2022/03/05 04:18:06;;;;;;;13.80;6.30;;;-2.90;99.90;;;;;;5051528;28;20090;-66
2022/03/05 04:20:32;;;;;;;14.90;5.80;;;-2.90;99.90;;;;;;5044328;28;20051;-66
2022/03/05 04:22:58;;;;;;;12.77;5.95;;;-2.90;99.90;;;;;;5051215;28;20078;-66
2022/03/05 04:25:25;;;;;;;13.45;5.22;;;-2.90;99.90;;;;;;5053991;28;20056;-66
2022/03/05 04:27:51;;;;;;;13.52;5.47;;;-3.00;99.90;;;;;;5055442;28;20159;-66
2022/03/05 04:30:17;;;;;;;15.40;5.65;;;-3.00;99.90;;;;;;5058556;28;20140;-66
2022/03/05 04:32:42;;;;;;;12.20;5.78;;;-3.00;99.90;;;;;;5052345;28;20029;-66
2022/03/05 04:35:09;;;;;;;12.13;6.43;;;-3.00;99.90;;;;;;5032268;28;20080;-66
2022/03/05 04:37:35;;;;;;;13.93;5.53;;;-3.00;99.90;;;;;;5049365;28;20071;-66
2022/03/05 04:40:00;;;;;;;14.32;6.75;;;-3.00;99.90;;;;;;5064586;28;20355;-65
2022/03/05 04:42:26;;;;;;;13.95;6.00;;;-3.00;99.90;;;;;;5059118;28;20135;-66
2022/03/05 04:44:53;;;;;;;14.65;6.40;;;-3.00;99.90;;;;;;5059729;28;20036;-66
2022/03/05 04:47:18;;;;;;;12.75;5.60;;;-3.10;99.90;;;;;;5041830;28;20072;-65
2022/03/05 04:49:44;;;;;;;11.40;5.88;;;-3.10;99.90;;;;;;5049819;28;20437;-66
2022/03/05 04:52:10;;;;;;;13.65;5.80;;;-3.10;99.90;;;;;;5058770;28;20047;-66
2022/03/05 04:54:36;;;;;;;13.73;6.05;;;-3.20;99.90;;;;;;5053553;28;20047;-67
2022/03/05 04:57:03;;;;;;;11.30;5.78;;;-3.20;99.90;;;;;;5056032;28;20045;-65
2022/03/05 04:59:29;;;;;;;14.52;6.25;;;-3.20;99.90;;;;;;5058871;28;20064;-65
2022/03/05 05:01:56;;;;;;;15.40;6.50;;;-3.20;99.90;;;;;;5037489;28;20128;-66
2022/03/05 05:04:22;;;;;;;14.77;6.25;;;-3.20;99.90;;;;;;5064356;28;20041;-65
2022/03/05 05:06:48;;;;;;;16.40;6.50;;;-3.20;99.90;;;;;;5057375;28;20112;-66
2022/03/05 05:09:13;;;;;;;16.70;7.22;;;-3.10;99.90;;;;;;5055562;28;20131;-65
2022/03/05 05:11:39;;;;;;;15.68;6.10;;;-3.10;99.90;;;;;;5056472;28;20544;-66
2022/03/05 05:14:05;;;;;;;15.38;6.70;;;-3.10;99.90;;;;;;5060296;28;20452;-66
2022/03/05 05:16:30;;;;;;;14.50;6.57;;;-3.10;99.90;;;;;;5055567;28;20514;-65
2022/03/05 05:21:40;;;;;;;12.55;6.10;;;-3.20;99.90;;;;;;5055844;28;20052;-66
2022/03/05 05:24:06;;;;;;;12.75;5.63;;;-3.10;99.90;;;;;;5056636;28;20041;-65
2022/03/05 05:26:32;;;;;;;13.60;6.55;;;-3.10;99.90;;;;;;5055299;28;20057;-66
2022/03/05 05:28:57;;;;;;;12.02;6.25;;;-3.20;99.90;;;;;;5059261;28;20040;-65
2022/03/05 05:31:23;;;;;;;11.75;5.68;;;-3.20;99.90;;;;;;5060419;28;20041;-65
2022/03/05 05:33:50;;;;;;;15.23;6.10;;;-3.20;99.90;;;;;;5057413;28;20101;-65
2022/03/05 05:36:16;;;;;;;12.63;6.43;;;-3.20;99.90;;;;;;5058971;28;20193;-65
2022/03/05 05:38:41;;;;;;;12.13;5.97;;;-3.20;99.90;;;;;;5034769;28;20139;-65
2022/03/05 05:41:07;;;;;;;14.63;5.88;;;-3.10;99.90;;;;;;5035065;28;20051;-65
2022/03/05 05:43:33;;;;;;;17.02;6.95;;;-3.10;99.90;;;;;;5055581;28;20037;-66
2022/03/05 05:45:59;;;;;;;11.63;6.45;;;-3.10;99.90;;;;;;5058992;28;20037;-65
2022/03/05 05:48:25;;;;;;;11.48;5.80;;;-3.20;99.90;;;;;;5058283;28;20502;-66
2022/03/05 05:50:50;;;;;;;13.57;6.55;;;-3.20;99.90;;;;;;5051332;28;20064;-65
2022/03/05 05:53:16;;;;;;;14.35;6.10;;;-3.20;99.90;;;;;;5063405;28;20834;-65
2022/03/05 05:55:41;;;;;;;12.73;5.85;;;-3.20;99.90;;;;;;5066597;28;20048;-65
2022/03/05 05:58:07;;;;;;;13.55;6.22;;;-3.20;99.90;;;;;;5043790;28;20124;-65
2022/03/05 06:00:32;;;;;;;18.63;7.10;;;-3.20;99.90;;;;;;5054014;28;20075;-66
2022/03/05 06:02:58;;;;;;;15.65;7.00;;;-3.20;99.90;;;;;;5035763;28;20048;-66
2022/03/05 06:05:23;;;;;;;11.68;5.95;;;-3.20;99.90;;;;;;5055869;28;21740;-66
2022/03/05 06:07:49;;;;;;;13.80;6.95;;;-3.20;99.90;;;;;;5057420;28;20238;-66
2022/03/05 06:10:15;;;;;;;15.77;6.72;;;-3.20;99.90;;;;;;5063007;28;20139;-67
2022/03/05 06:12:40;;;;;;;16.75;6.68;;;-3.20;99.90;;;;;;5058509;28;20029;-65
2022/03/05 06:15:08;;;;;;;16.48;7.13;;;-3.10;99.90;;;;;;5053644;28;20072;-65
2022/03/05 06:17:34;;;;;;;13.30;7.00;;;-3.00;99.90;;;;;;5065774;28;20037;-65
2022/03/05 06:20:00;;;;;;;17.38;6.78;;;-2.90;99.90;;;;;;5060337;28;20053;-65
2022/03/05 06:22:26;;;;;;;15.95;7.15;;;-2.80;99.90;;;;;;5041665;28;20093;-66
2022/03/05 06:24:52;;;;;;;16.63;8.05;;;-2.70;99.90;;;;;;5070933;28;20460;-66
2022/03/05 06:27:18;;;;;;;16.50;6.05;;;-2.70;99.90;;;;;;5037681;28;20036;-65
2022/03/05 06:29:44;;;;;;;18.25;6.82;;;-2.70;99.90;;;;;;5059169;28;20064;-65
2022/03/05 06:32:09;;;;;;;15.18;7.40;;;-2.60;99.90;;;;;;5038900;28;20052;-65
2022/03/05 06:34:36;;;;;;;18.33;7.80;;;-2.60;99.90;;;;;;5059450;28;20047;-66
2022/03/05 06:37:01;;;;;;;20.00;7.18;;;-2.50;99.90;;;;;;5058191;28;20123;-65
2022/03/05 06:39:27;;;;;;;16.73;8.20;;;-2.50;99.90;;;;;;5057673;28;20120;-65
2022/03/05 06:41:53;;;;;;;18.40;7.35;;;-2.40;99.90;;;;;;5052909;28;20064;-65
2022/03/05 06:44:19;;;;;;;18.00;7.75;;;-2.40;99.90;;;;;;5036705;28;20137;-66
2022/03/05 06:46:44;;;;;;;17.20;8.10;;;-2.40;99.90;;;;;;5059836;28;20037;-65
2022/03/05 06:49:10;;;;;;;16.73;7.47;;;-2.30;99.90;;;;;;5055052;28;20046;-66
2022/03/05 06:51:35;;;;;;;17.80;7.40;;;-2.20;99.90;;;;;;5063111;28;20431;-67
2022/03/05 06:54:01;;;;;;;13.02;6.85;;;-2.00;99.90;;;;;;5050430;28;21046;-66
2022/03/05 06:56:26;;;;;;;16.20;7.28;;;-1.80;99.90;;;;;;5061332;28;20036;-65
2022/03/05 06:58:52;;;;;;;17.48;8.50;;;-1.70;99.90;;;;;;5067587;28;20098;-66
2022/03/05 07:01:17;;;;;;;14.18;7.35;;;-1.60;99.90;;;;;;5060299;28;20041;-66
2022/03/05 07:03:43;;;;;;;16.27;7.22;;;-1.40;99.90;;;;;;5040559;28;20036;-65
2022/03/05 07:06:09;;;;;;;14.43;6.82;;;-1.30;99.90;;;;;;5054775;28;20045;-66
2022/03/05 07:08:36;;;;;;;15.48;7.13;;;-1.20;99.90;;;;;;5047609;28;20037;-66
2022/03/05 07:11:02;;;;;;;14.10;6.60;;;-1.10;99.90;;;;;;5058261;28;20036;-66
2022/03/05 07:13:28;;;;;;;14.55;7.35;;;-0.90;99.90;;;;;;5055668;28;20044;-66
2022/03/05 07:15:53;;;;;;;15.43;7.43;;;-0.60;99.90;;;;;;5065567;28;20527;-66
2022/03/05 07:18:19;;;;;;;13.43;6.93;;;-0.40;99.90;;;;;;5069989;28;20036;-66
2022/03/05 07:20:45;;;;;;;15.32;7.30;;;-0.20;99.90;;;;;;5068048;28;20055;-66
2022/03/05 07:23:10;;;;;;;11.55;6.60;;;0.20;99.90;;;;;;5062208;28;20470;-68
2022/03/05 07:25:39;;;;;;;14.80;6.82;;;0.50;99.90;;;;;;5050317;28;20138;-66
2022/03/05 07:28:09;;;;;;;13.30;6.70;;;0.80;99.90;;;;;;5064620;28;20364;-66
2022/03/05 07:30:38;;;;;;;14.98;7.80;;;1.10;99.90;;;;;;5059140;28;20037;-67
2022/03/05 07:33:05;;;;;;;14.27;7.27;;;1.40;99.10;;;;;;5049795;28;20033;-67
2022/03/05 07:35:31;;;;;;;13.57;6.60;;;1.60;99.20;;;;;;5050644;28;20049;-67
2022/03/05 07:37:56;;;;;;;14.23;7.28;;;1.90;99.20;;;;;;5045540;28;20043;-67
2022/03/05 07:40:22;;;;;;;14.48;7.25;;;2.10;98.80;;;;;;5052009;28;20048;-67
2022/03/05 07:42:48;;;;;;;12.75;7.32;;;2.40;98.40;;;;;;5057966;28;20047;-67
2022/03/05 07:45:13;;;;;;;11.88;6.95;;;2.60;96.70;;;;;;5052066;28;20052;-67
2022/03/05 07:47:39;;;;;;;12.20;6.82;;;2.70;96.70;;;;;;5041549;28;20040;-67
2022/03/05 07:50:05;;;;;;;11.52;6.95;;;2.90;96.70;;;;;;5063909;28;20116;-68
2022/03/05 07:52:31;;;;;;;15.23;7.63;;;2.80;95.20;;;;;;5048594;28;20491;-67
2022/03/05 07:54:57;;;;;;;13.48;7.13;;;2.80;94.70;;;;;;5062441;28;20044;-68
2022/03/05 07:57:22;;;;;;;13.70;7.40;;;2.70;94.50;;;;;;5063905;28;20056;-68
2022/03/05 07:59:48;;;;;;;12.88;6.80;;;2.60;94.20;;;;;;5061095;28;20065;-69
2022/03/05 08:02:16;;;;;;;15.27;8.32;;;2.40;93.50;;;;;;5048556;28;20488;-69
2022/03/05 08:04:44;;;;;;;16.90;7.57;;;2.40;93.90;;;;;;5051769;28;20101;-69
2022/03/05 08:07:10;;;;;;;13.23;7.25;;;2.30;93.90;;;;;;5063438;28;20037;-71
2022/03/05 08:09:36;;;;;;;14.25;7.93;;;2.40;93.70;;;;;;5064665;28;20044;-68
2022/03/05 08:12:03;;;;;;;14.52;7.90;;;2.30;92.40;;;;;;5052816;28;20485;-69
2022/03/05 08:14:28;;;;;;;14.10;7.53;;;2.30;92.90;;;;;;5032349;28;20087;-69
2022/03/05 08:16:54;;;;;;;16.65;7.93;;;2.30;93.00;;;;;;5060977;28;20109;-69
2022/03/05 08:19:20;;;;;;;15.77;7.68;;;2.40;91.90;;;;;;5032008;28;20333;-69
2022/03/05 08:21:45;;;;;;;15.65;7.60;;;2.40;92.00;;;;;;5051335;28;20044;-70
2022/03/05 08:24:11;;;;;;;19.27;8.73;;;2.40;91.90;;;;;;5043430;28;20573;-71
2022/03/05 08:26:37;;;;;;;14.63;7.90;;;2.50;91.40;;;;;;5057247;28;20039;-69
2022/03/05 08:29:03;;;;;;;16.67;8.07;;;2.50;91.50;;;;;;5047420;28;20044;-70
2022/03/05 08:31:31;;;;;;;16.92;8.07;;;2.60;91.40;;;;;;5037339;28;20029;-70
2022/03/05 08:34:01;;;;;;;15.98;8.40;;;2.70;91.20;;;;;;5062456;28;20465;-72
2022/03/05 08:36:27;;;;;;;17.50;8.85;;;2.60;91.10;;;;;;5059403;28;20508;-68
2022/03/05 08:38:53;;;;;;;19.35;9.00;;;2.60;91.00;;;;;;5057024;28;20042;-72
2022/03/05 08:41:19;;;;;;;18.10;8.45;;;2.70;91.20;;;;;;5038614;28;20589;-69
2022/03/05 08:43:44;;;;;;;19.58;9.05;;;2.60;91.00;;;;;;5048924;28;20042;-69
2022/03/05 08:46:10;;;;;;;19.23;8.88;;;2.70;91.00;;;;;;5031593;28;20055;-68
2022/03/05 08:48:35;;;;;;;19.52;8.80;;;2.80;90.90;;;;;;5055201;28;20036;-70
2022/03/05 08:51:01;;;;;;;16.70;8.48;;;2.70;90.00;;;;;;5054360;28;20047;-70
2022/03/05 08:53:27;;;;;;;19.85;9.20;;;2.80;90.20;;;;;;5031697;28;20457;-67
2022/03/05 08:55:53;;;;;;;21.38;8.45;;;3.00;90.50;;;;;;5053710;28;20154;-69
2022/03/05 08:58:19;;;;;;;20.58;9.52;;;3.00;89.80;;;;;;5049195;28;20040;-69
2022/03/05 09:00:45;;;;;;;20.17;8.55;;;2.90;89.40;;;;;;5053937;28;20379;-69
2022/03/05 09:03:10;;;;;;;21.70;8.73;;;3.10;90.00;;;;;;5060352;28;20045;-67
2022/03/05 09:05:36;;;;;;;19.40;9.50;;;3.20;90.10;;;;;;5032766;28;20056;-69
2022/03/05 09:08:02;;;;;;;20.85;9.18;;;3.30;90.00;;;;;;5047679;28;20155;-68
2022/03/05 09:10:27;;;;;;;19.52;9.15;;;3.30;89.40;;;;;;5054085;28;20044;-68
2022/03/05 09:12:53;;;;;;;21.80;9.75;;;3.40;89.50;;;;;;5056547;28;20510;-70
2022/03/05 09:15:18;;;;;;;21.77;9.57;;;3.40;89.20;;;;;;5032286;28;20053;-69
2022/03/05 09:17:44;;;;;;;20.80;9.20;;;3.60;88.80;;;;;;5049786;28;20056;-69
2022/03/05 09:20:11;;;;;;;20.35;10.20;;;3.60;88.40;;;;;;5050761;28;20052;-69
2022/03/05 09:22:36;;;;;;;20.58;9.43;;;3.50;85.70;;;;;;5049628;28;20127;-69
2022/03/05 09:25:02;;;;;;;20.33;9.40;;;3.60;86.70;;;;;;5054688;28;20119;-68
2022/03/05 09:27:28;;;;;;;19.92;9.02;;;3.60;86.50;;;;;;5056100;28;20155;-69
2022/03/05 09:29:54;;;;;;;21.27;9.70;;;3.70;86.90;;;;;;5061055;28;20508;-69
2022/03/05 09:32:19;;;;;;;21.27;9.25;;;3.80;85.30;;;;;;5056301;28;20040;-68
2022/03/05 09:34:45;;;;;;;22.23;9.10;;;3.80;85.40;;;;;;5068561;28;20037;-68
2022/03/05 09:37:11;;;;;;;19.77;10.75;;;3.90;84.70;;;;;;5065869;28;20395;-68
2022/03/05 09:39:37;;;;;;;24.90;9.70;;;3.80;84.20;;;;;;5034151;28;20465;-67
2022/03/05 09:42:06;;;;;;;20.38;10.23;;;3.90;84.00;;;;;;5054977;28;20116;-68
2022/03/05 09:44:32;;;;;;;24.97;10.03;;;4.00;83.10;;;;;;5072888;28;20484;-67
2022/03/05 09:47:00;;;;;;;20.52;10.13;;;3.70;82.50;;;;;;5054166;28;20507;-68
2022/03/05 09:49:27;;;;;;;23.30;10.55;;;3.70;83.00;;;;;;5058829;28;20033;-69
2022/03/05 09:51:54;;;;;;;23.23;10.00;;;3.70;83.60;;;;;;5060840;28;20036;-67
2022/03/05 09:54:20;;;;;;;24.55;9.85;;;3.80;83.30;;;;;;5051842;28;20472;-67
2022/03/05 09:56:46;;;;;;;23.67;10.23;;;4.00;82.80;;;;;;5056776;28;20370;-67
2022/03/05 09:59:11;;;;;;;23.40;10.60;;;3.90;82.70;;;;;;5063629;28;20037;-68
2022/03/05 10:01:38;;;;;;;21.27;10.07;;;4.00;81.30;;;;;;5065843;28;20064;-67
2022/03/05 10:04:04;;;;;;;21.02;10.32;;;4.10;81.60;;;;;;5053816;28;20044;-73
2022/03/05 10:06:30;;;;;;;22.30;10.20;;;4.20;81.60;;;;;;5046216;28;20416;-69
2022/03/05 10:08:56;;;;;;;25.25;11.38;;;4.20;81.30;;;;;;5048376;28;20695;-68
2022/03/05 10:11:24;;;;;;;22.73;10.30;;;4.30;82.00;;;;;;5049994;28;20094;-68
2022/03/05 10:13:50;;;;;;;21.75;10.38;;;4.50;82.20;;;;;;5039537;28;20074;-67
2022/03/05 10:16:24;;;;;;;23.80;9.15;;;4.50;80.90;;;;;;5042342;28;20069;-70
2022/03/05 10:18:50;;;;;;;23.60;9.77;;;4.50;78.50;;;;;;5058410;28;20044;-68
2022/03/05 10:21:16;;;;;;;26.13;10.65;;;4.50;79.40;;;;;;5040285;28;20397;-68
2022/03/05 10:23:47;;;;;;;22.95;10.50;;;4.50;81.20;;;;;;5064920;28;20047;-67
2022/03/05 10:26:21;;;;;;;27.25;10.02;;;4.70;80.70;;;;;;5051344;28;20466;-68
2022/03/05 10:28:47;;;;;;;22.98;11.00;;;4.80;80.70;;;;;;5060573;28;20025;-68
2022/03/05 10:31:13;;;;;;;24.85;10.98;;;4.90;81.20;;;;;;5058848;28;20146;-67
2022/03/05 10:33:40;;;;;;;24.17;10.98;;;5.00;80.20;;;;;;5035501;28;20037;-68
2022/03/05 10:36:08;;;;;;;24.83;10.35;;;5.00;79.50;;;;;;5067654;28;20131;-70
2022/03/05 10:38:46;;;;;;;31.90;12.27;;;4.90;78.90;;;;;;5064647;28;20523;-69
2022/03/05 10:41:17;;;;;;;22.52;10.98;;;4.90;79.30;;;;;;5048255;28;20097;-68
2022/03/05 10:43:44;;;;;;;25.45;11.45;;;4.90;78.60;;;;;;5054036;28;20469;-67
2022/03/05 10:46:10;;;;;;;21.77;10.85;;;4.90;78.70;;;;;;5071567;28;20218;-68
2022/03/05 10:48:40;;;;;;;21.40;9.40;;;5.00;77.90;;;;;;5070606;28;20135;-68
2022/03/05 10:51:10;;;;;;;;;;;5.00;77.70;;;;;;5057475;28;20064;-66
2022/03/05 10:53:41;;;;;;;25.38;11.20;;;5.10;78.40;;;;;;5074750;28;19917;-68
2022/03/05 10:56:31;;;;;;;23.13;10.63;;;5.10;77.70;;;;;;5034915;28;20052;-69
2022/03/05 10:58:57;;;;;;;23.08;9.02;;;5.20;76.10;;;;;;5051787;28;20595;-68
2022/03/05 11:01:24;;;;;;;24.58;10.48;;;5.20;78.00;;;;;;5060348;28;20040;-67
2022/03/05 11:03:52;;;;;;;26.10;11.48;;;5.40;78.40;;;;;;5062673;28;20130;-69
2022/03/05 11:06:19;;;;;;;24.65;11.98;;;5.50;77.90;;;;;;5039092;28;20424;-69
2022/03/05 11:08:46;;;;;;;23.80;11.45;;;5.50;77.60;;;;;;5062941;28;20091;-69
2022/03/05 11:11:14;;;;;;;26.17;11.38;;;5.50;75.50;;;;;;5054165;28;20040;-67
2022/03/05 11:13:40;;;;;;;25.45;11.30;;;5.60;76.30;;;;;;5054348;28;20065;-66
2022/03/05 11:16:06;;;;;;;26.17;10.90;;;5.70;75.60;;;;;;5061959;28;20065;-70
2022/03/05 11:18:32;;;;;;;27.42;13.10;;;5.60;74.50;;;;;;5065237;28;20102;-68
2022/03/05 11:21:00;;;;;;;23.23;11.32;;;5.60;75.00;;;;;;5061037;28;20124;-68
2022/03/05 11:23:26;;;;;;;23.55;10.63;;;5.70;74.30;;;;;;5067571;28;20044;-69
2022/03/05 11:25:52;;;;;;;25.60;11.10;;;5.70;74.80;;;;;;5069231;28;20094;-67
2022/03/05 11:28:19;;;;;;;26.85;11.23;;;5.80;75.30;;;;;;5055379;28;20048;-67
2022/03/05 11:30:45;;;;;;;25.58;12.15;;;5.70;74.70;;;;;;5049241;28;20086;-68
2022/03/05 11:33:22;;;;;;;26.92;12.13;;;5.70;75.00;;;;;;5052786;28;20066;-67
2022/03/05 11:35:48;;;;;;;27.00;12.68;;;5.80;74.00;;;;;;5070542;28;20044;-68
2022/03/05 11:38:35;;;;;;;29.38;12.45;;;5.70;73.90;;;;;;5067047;28;20044;-68
2022/03/05 11:41:21;;;;;;;27.70;13.00;;;5.80;75.30;;;;;;5070631;28;20045;-67
2022/03/05 11:43:47;;;;;;;23.70;11.52;;;6.10;74.40;;;;;;5054044;28;20044;-68
2022/03/05 11:46:27;;;;;;;28.48;12.70;;;6.00;74.00;;;;;;5050494;28;20116;-67
2022/03/05 11:49:19;;;;;;;25.87;12.60;;;6.00;73.30;;;;;;5049972;28;20112;-68
2022/03/05 11:51:57;;;;;;;22.92;10.52;;;6.10;73.00;;;;;;5056151;28;20135;-67
2022/03/05 11:54:23;;;;;;;24.27;11.30;;;6.10;71.10;;;;;;5069383;28;20087;-66
2022/03/05 11:57:11;;;;;;;28.05;11.48;;;6.10;73.80;;;;;;5060770;28;20029;-68
2022/03/05 11:59:41;;;;;;;22.27;10.90;;;6.20;73.40;;;;;;5055856;28;20041;-67
2022/03/05 12:02:07;;;;;;;27.05;12.00;;;6.20;72.60;;;;;;5060472;28;20044;-69
2022/03/05 12:04:33;;;;;;;24.17;12.15;;;6.20;71.70;;;;;;5055696;28;20434;-69
2022/03/05 12:07:04;;;;;;;23.08;11.23;;;6.20;72.40;;;;;;5047539;28;20036;-68
2022/03/05 12:09:42;;;;;;;27.45;11.63;;;6.30;72.00;;;;;;5081364;28;20134;-68
2022/03/05 12:12:17;;;;;;;24.75;11.85;;;6.30;71.40;;;;;;5066221;28;20112;-67
2022/03/05 12:14:55;;;;;;;27.10;12.00;;;6.30;70.90;;;;;;5064040;28;20052;-68
2022/03/05 12:17:25;;;;;;;24.70;12.30;;;6.30;71.00;;;;;;5032063;28;20053;-69
2022/03/05 12:19:50;;;;;;;31.33;12.07;;;6.40;70.70;;;;;;5037578;28;20439;-67
2022/03/05 12:22:16;;;;;;;26.58;12.50;;;6.50;71.50;;;;;;5054425;28;20049;-67
2022/03/05 12:24:42;;;;;;;27.33;11.57;;;6.70;71.40;;;;;;5054765;28;20040;-68
2022/03/05 12:27:14;;;;;;;27.70;13.27;;;6.70;70.10;;;;;;5053156;28;20040;-67
2022/03/05 12:29:50;;;;;;;26.80;12.10;;;6.80;70.40;;;;;;5050012;28;20048;-69
2022/03/05 12:32:18;;;;;;;23.50;10.55;;;6.90;68.70;;;;;;5048959;28;20033;-68
2022/03/05 12:34:43;;;;;;;28.40;13.13;;;6.80;69.60;;;;;;5062130;28;20120;-69
2022/03/05 12:37:09;;;;;;;26.40;12.20;;;6.90;70.30;;;;;;5055010;28;20135;-69
2022/03/05 12:39:41;;;;;;;26.10;11.35;;;6.70;69.20;;;;;;5050072;28;20144;-68
2022/03/05 12:42:07;;;;;;;27.02;12.68;;;6.80;69.50;;;;;;5049774;28;20438;-69